Time;durP1;ratioP1;P1;durP2;ratioP2;P2;SDS_P1;SDS_P2;PMS_P1;PMS_P2;Temp;Humidity;BMP_temperature;BMP_pressure;BME280_temperature;BME280_humidity;BME280_pressure;Samples;Min_cycle;Max_cycle;Signal;HPM_P1;HPM_P2
2021/06/07 00:01:08;;;;;;;9.63;3.60;;;;;;;20.77;45.99;101150.25;5032446;28;20044;-67
2021/06/07 00:03:35;;;;;;;4.35;3.55;;;;;;;20.76;46.08;101138.66;5032732;28;20041;-66
2021/06/07 00:06:03;;;;;;;5.15;3.50;;;;;;;20.75;45.96;101141.34;5032549;28;20117;-66
2021/06/07 00:08:32;;;;;;;7.47;4.05;;;;;;;20.79;46.18;101145.75;5032211;28;20133;-66
2021/06/07 00:10:59;;;;;;;8.32;4.20;;;;;;;20.49;46.82;101149.91;5032205;28;20557;-66
2021/06/07 00:13:26;;;;;;;5.30;3.67;;;;;;;20.35;47.22;101144.81;5032232;28;20083;-65
2021/06/07 00:15:55;;;;;;;6.43;4.03;;;;;;;20.39;47.29;101146.53;5031275;28;20044;-66
2021/06/07 00:18:23;;;;;;;6.53;3.95;;;;;;;20.53;46.79;101140.91;5032054;28;20040;-66
2021/06/07 00:20:55;;;;;;;6.85;3.70;;;;;;;20.66;46.74;101137.97;5032080;28;20532;-66
2021/06/07 00:23:22;;;;;;;5.55;3.70;;;;;;;20.67;46.45;101133.47;5032471;28;20109;-65
2021/06/07 00:25:52;;;;;;;6.88;4.07;;;;;;;20.73;46.21;101141.41;5032319;28;20117;-66
2021/06/07 00:28:21;;;;;;;5.90;3.72;;;;;;;20.63;46.47;101132.63;5032010;28;20034;-65
2021/06/07 00:30:48;;;;;;;6.50;4.05;;;;;;;20.48;46.85;101142.81;5032077;28;20113;-66
2021/06/07 00:33:16;;;;;;;5.57;4.00;;;;;;;20.52;46.82;101131.97;5030464;28;20145;-65
2021/06/07 00:35:43;;;;;;;6.20;4.07;;;;;;;20.55;46.73;101128.34;5031348;28;20037;-66
2021/06/07 00:38:11;;;;;;;6.15;4.00;;;;;;;20.58;46.69;101130.97;5032003;28;20084;-66
2021/06/07 00:40:39;;;;;;;6.00;4.05;;;;;;;20.53;46.42;101127.50;5031790;28;20124;-66
2021/06/07 00:43:08;;;;;;;7.70;4.18;;;;;;;20.53;46.40;101128.38;5031666;28;20040;-66
2021/06/07 00:45:39;;;;;;;6.38;4.28;;;;;;;20.44;46.46;101144.63;5031354;28;20042;-66
2021/06/07 00:48:08;;;;;;;6.05;4.18;;;;;;;20.22;46.89;101137.84;5032131;28;20044;-66
2021/06/07 00:50:40;;;;;;;6.50;4.32;;;;;;;20.10;47.21;101138.97;5031550;28;20061;-66
2021/06/07 00:53:10;;;;;;;7.10;3.90;;;;;;;20.11;47.28;101131.81;5031676;28;20136;-66
2021/06/07 00:55:40;;;;;;;5.28;4.28;;;;;;;20.19;46.83;101135.25;5030883;28;20049;-66
2021/06/07 00:58:11;;;;;;;7.30;4.30;;;;;;;20.26;46.63;101126.19;5031645;28;20121;-66
2021/06/07 01:00:40;;;;;;;6.95;4.32;;;;;;;20.23;46.79;101136.94;5028769;28;20464;-65
2021/06/07 01:03:09;;;;;;;7.25;3.97;;;;;;;20.08;46.87;101130.09;5029318;28;20053;-66
2021/06/07 01:05:38;;;;;;;6.03;4.30;;;;;;;19.90;47.37;101141.09;5027270;28;20036;-66
2021/06/07 01:08:06;;;;;;;7.70;4.10;;;;;;;19.87;47.70;101142.06;5030255;28;20078;-66
2021/06/07 01:10:34;;;;;;;5.80;3.85;;;;;;;19.98;47.43;101141.88;5029362;28;20038;-66
2021/06/07 01:13:02;;;;;;;9.25;4.38;;;;;;;20.01;47.11;101143.63;5031350;28;20091;-66
2021/06/07 01:15:31;;;;;;;5.18;3.80;;;;;;;20.05;47.26;101132.81;5030522;28;20157;-67
2021/06/07 01:17:58;;;;;;;8.52;4.55;;;;;;;20.13;46.90;101140.72;5030734;28;20048;-66
2021/06/07 01:20:26;;;;;;;6.88;4.05;;;;;;;20.15;46.54;101136.22;5031202;28;20045;-66
2021/06/07 01:22:56;;;;;;;6.30;3.75;;;;;;;20.07;46.73;101130.09;5030971;28;20377;-66
2021/06/07 01:25:25;;;;;;;6.07;4.28;;;;;;;19.95;47.03;101120.50;5030374;28;20051;-66
2021/06/07 01:27:53;;;;;;;5.93;4.22;;;;;;;19.83;47.29;101128.72;5031503;28;20041;-66
2021/06/07 01:30:24;;;;;;;7.13;4.85;;;;;;;19.79;47.32;101117.16;5030683;28;20112;-66
2021/06/07 01:32:51;;;;;;;9.02;4.13;;;;;;;19.85;47.18;101121.53;5031023;28;20128;-65
2021/06/07 01:35:18;;;;;;;6.65;3.75;;;;;;;19.89;47.03;101110.72;5030313;28;20041;-66
2021/06/07 01:37:47;;;;;;;7.75;3.88;;;;;;;19.88;46.92;101124.19;5030771;28;20038;-66
2021/06/07 01:40:21;;;;;;;6.35;4.38;;;;;;;19.66;47.42;101117.41;5028811;28;20041;-65
2021/06/07 01:42:50;;;;;;;6.95;4.50;;;;;;;19.49;47.66;101120.34;5028859;28;20461;-66
2021/06/07 01:45:20;;;;;;;5.53;4.10;;;;;;;19.50;47.64;101119.41;5029545;28;20053;-65
2021/06/07 01:47:47;;;;;;;7.25;4.10;;;;;;;19.58;47.48;101114.81;5030615;28;20489;-66
2021/06/07 01:50:15;;;;;;;8.75;4.50;;;;;;;19.62;47.24;101113.00;5030010;28;20124;-66
2021/06/07 01:52:44;;;;;;;6.15;4.53;;;;;;;19.38;47.85;101116.88;5030212;28;20051;-66
2021/06/07 01:55:13;;;;;;;6.55;4.45;;;;;;;19.38;48.00;101109.75;5029291;28;20052;-66
2021/06/07 01:57:43;;;;;;;6.78;4.30;;;;;;;19.48;47.61;101110.53;5030592;28;20033;-66
2021/06/07 02:00:13;;;;;;;6.75;3.90;;;;;;;19.58;47.48;101108.59;5029425;28;20038;-66
2021/06/07 02:02:44;;;;;;;5.28;3.72;;;;;;;19.53;47.44;101114.03;5030802;28;20042;-70
2021/06/07 02:05:12;;;;;;;6.97;4.75;;;;;;;19.49;47.55;101106.97;5029866;28;20041;-65
2021/06/07 02:07:44;;;;;;;6.43;4.07;;;;;;;19.55;47.44;101104.19;5029942;28;20046;-66
2021/06/07 02:10:13;;;;;;;5.75;4.20;;;;;;;19.50;47.55;101116.75;5029572;28;20052;-66
2021/06/07 02:12:42;;;;;;;9.65;4.20;;;;;;;19.49;47.68;101118.53;5029562;28;20042;-66
2021/06/07 02:15:12;;;;;;;5.97;4.10;;;;;;;19.54;47.48;101118.47;5029768;28;20501;-66
2021/06/07 02:17:39;;;;;;;6.88;4.05;;;;;;;19.55;47.37;101120.25;5027580;28;20188;-65
2021/06/07 02:20:09;;;;;;;6.60;3.88;;;;;;;19.52;47.37;101125.63;5026728;28;20117;-65
2021/06/07 02:22:37;;;;;;;4.35;3.40;;;;;;;19.54;47.29;101120.28;5028158;28;20053;-65
2021/06/07 02:25:05;;;;;;;5.78;3.75;;;;;;;19.40;47.58;101126.69;5029230;28;20034;-66
2021/06/07 02:27:33;;;;;;;9.98;4.78;;;;;;;19.42;47.63;101121.31;5029721;28;20064;-66
2021/06/07 02:30:05;;;;;;;5.68;3.75;;;;;;;19.49;47.42;101115.00;5029570;28;20500;-66
2021/06/07 02:32:32;;;;;;;4.47;3.70;;;;;;;19.56;47.05;101129.19;5029619;28;20040;-66
2021/06/07 02:34:59;;;;;;;5.57;3.70;;;;;;;19.58;47.14;101130.91;5029198;28;20103;-66
2021/06/07 02:37:26;;;;;;;6.07;3.80;;;;;;;19.50;47.36;101122.09;5029554;28;20116;-66
2021/06/07 02:39:54;;;;;;;6.70;3.97;;;;;;;19.42;47.62;101135.59;5029431;28;20037;-66
2021/06/07 02:42:21;;;;;;;4.85;3.65;;;;;;;19.49;47.25;101136.41;5028856;28;20037;-66
2021/06/07 02:44:49;;;;;;;6.95;4.18;;;;;;;19.51;47.12;101131.91;5029234;28;20112;-66
2021/06/07 02:47:18;;;;;;;6.60;4.22;;;;;;;19.46;47.27;101149.84;5030451;28;20456;-66
2021/06/07 02:49:45;;;;;;;5.97;4.00;;;;;;;19.38;47.42;101141.88;5029158;28;20041;-66
2021/06/07 02:52:12;;;;;;;4.43;3.85;;;;;;;19.38;47.43;101146.34;5028910;28;20429;-66
2021/06/07 02:54:39;;;;;;;5.75;3.85;;;;;;;19.43;47.22;101144.47;5029484;28;20075;-66
2021/06/07 02:57:07;;;;;;;7.00;3.70;;;;;;;19.49;47.04;101147.13;5029185;28;20086;-66
2021/06/07 02:59:34;;;;;;;5.45;3.55;;;;;;;19.46;47.06;101153.41;5028428;28;20037;-66
2021/06/07 03:02:01;;;;;;;4.80;3.70;;;;;;;19.51;47.04;101153.31;5029147;28;20077;-66
2021/06/07 03:04:30;;;;;;;8.02;3.70;;;;;;;19.56;47.04;101156.81;5028948;28;20056;-66
2021/06/07 03:06:57;;;;;;;5.63;3.67;;;;;;;19.57;46.98;101155.91;5029567;28;20122;-66
2021/06/07 03:09:24;;;;;;;8.48;3.47;;;;;;;19.61;47.09;101154.09;5028738;28;20343;-66
2021/06/07 03:11:51;;;;;;;6.47;3.67;;;;;;;19.53;47.25;101156.00;5029248;28;20052;-66
2021/06/07 03:14:18;;;;;;;5.90;3.83;;;;;;;19.54;47.31;101172.03;5028877;28;20515;-66
2021/06/07 03:16:45;;;;;;;5.78;3.70;;;;;;;19.60;47.05;101163.91;5027383;28;20447;-65
2021/06/07 03:19:13;;;;;;;6.45;3.58;;;;;;;19.68;46.96;101172.72;5028818;28;20038;-66
2021/06/07 03:21:41;;;;;;;5.32;3.55;;;;;;;19.72;46.77;101162.84;5028973;28;20124;-67
2021/06/07 03:24:09;;;;;;;6.93;3.85;;;;;;;19.76;46.56;101165.44;5028735;28;20523;-66
2021/06/07 03:26:36;;;;;;;7.70;3.97;;;;;;;19.80;46.56;101163.59;5028964;28;20396;-66
2021/06/07 03:29:05;;;;;;;5.10;3.63;;;;;;;19.79;46.59;101156.47;5028248;28;20076;-65
2021/06/07 03:31:32;;;;;;;5.75;3.60;;;;;;;19.83;46.71;101158.19;5027426;28;20033;-66
2021/06/07 03:34:00;;;;;;;10.77;4.70;;;;;;;19.84;46.74;101155.50;5030536;28;20048;-66
2021/06/07 03:36:29;;;;;;;7.65;4.57;;;;;;;19.76;46.96;101151.16;5030364;28;20040;-66
2021/06/07 03:38:59;;;;;;;9.43;5.38;;;;;;;19.75;47.09;101147.63;5030688;28;20488;-66
2021/06/07 03:41:26;;;;;;;9.15;5.32;;;;;;;19.80;46.98;101150.22;5032912;28;20112;-66
2021/06/07 03:43:53;;;;;;;7.38;4.95;;;;;;;19.85;47.11;101154.59;5032260;28;20041;-66
2021/06/07 03:46:19;;;;;;;8.43;5.53;;;;;;;19.83;47.14;101158.19;5032226;28;20040;-66
2021/06/07 03:48:47;;;;;;;9.93;5.78;;;;;;;19.89;47.48;101156.28;5032881;28;20033;-66
2021/06/07 03:51:14;;;;;;;5.68;4.25;;;;;;;19.97;47.27;101158.84;5012734;28;20046;-66
2021/06/07 03:53:41;;;;;;;5.95;4.22;;;;;;;19.97;47.29;101160.63;5012891;28;20133;-66
2021/06/07 03:56:09;;;;;;;7.03;4.25;;;;;;;19.92;47.36;101155.38;5012739;28;20088;-66
2021/06/07 03:58:36;;;;;;;6.63;4.32;;;;;;;19.89;47.61;101164.34;5012670;28;20046;-66
2021/06/07 04:01:04;;;;;;;7.22;4.00;;;;;;;19.95;47.39;101163.38;5011519;28;20543;-66
2021/06/07 04:03:33;;;;;;;6.50;3.85;;;;;;;20.00;47.42;101169.53;5012884;28;20393;-66
2021/06/07 04:06:00;;;;;;;6.57;3.60;;;;;;;20.20;47.51;101174.56;5012270;28;20077;-66
2021/06/07 04:08:27;;;;;;;6.38;3.13;;;;;;;20.59;47.31;101176.56;5012516;28;20477;-66
2021/06/07 04:10:54;;;;;;;4.82;3.20;;;;;;;20.96;47.03;101176.69;5010115;28;20171;-65
2021/06/07 04:13:23;;;;;;;8.85;3.63;;;;;;;21.33;46.79;101179.50;5010890;28;20081;-66
2021/06/07 04:15:50;;;;;;;8.80;3.47;;;;;;;21.67;46.56;101178.75;5010598;28;20038;-66
2021/06/07 04:18:17;;;;;;;7.10;3.10;;;;;;;21.98;46.09;101177.16;5012478;28;20033;-66
2021/06/07 04:20:44;;;;;;;4.32;2.95;;;;;;;22.26;45.81;101174.63;5031444;28;20120;-66
2021/06/07 04:23:12;;;;;;;8.23;2.85;;;;;;;22.55;45.32;101177.44;5032171;28;20043;-65
2021/06/07 04:25:39;;;;;;;5.88;3.17;;;;;;;22.83;44.95;101176.72;5032150;28;20087;-66
2021/06/07 04:28:06;;;;;;;4.95;3.05;;;;;;;23.10;44.54;101175.94;5031582;28;20171;-66
2021/06/07 04:30:35;;;;;;;6.80;2.50;;;;;;;23.41;44.10;101179.47;5031630;28;20046;-66
2021/06/07 04:33:02;;;;;;;5.22;2.85;;;;;;;23.69;43.72;101190.31;5031566;28;20128;-66
2021/06/07 04:35:29;;;;;;;6.50;3.38;;;;;;;24.00;43.21;101182.09;5031449;28;20048;-66
2021/06/07 04:37:57;;;;;;;5.53;2.88;;;;;;;24.33;42.74;101180.13;5027139;28;20044;-65
2021/06/07 04:40:26;;;;;;;5.40;2.95;;;;;;;24.64;42.22;101182.63;5030643;28;20129;-66
2021/06/07 04:42:54;;;;;;;4.22;2.80;;;;;;;24.99;41.90;101181.38;5031435;28;20038;-65
2021/06/07 04:45:23;;;;;;;4.75;2.70;;;;;;;25.32;41.46;101180.09;5030608;28;20049;-66
2021/06/07 04:47:52;;;;;;;5.47;2.28;;;;;;;25.61;40.75;101180.78;5027698;28;20054;-66
2021/06/07 04:50:21;;;;;;;3.88;2.90;;;;;;;25.89;40.19;101181.44;5029556;28;20057;-65
2021/06/07 04:52:59;;;;;;;5.90;2.40;;;;;;;26.03;39.31;101178.16;5021846;28;20397;-65
2021/06/07 04:55:29;;;;;;;3.72;2.13;;;;;;;26.24;38.73;101184.50;5030013;28;20099;-66
2021/06/07 04:57:57;;;;;;;3.30;2.15;;;;;;;26.67;38.27;101189.84;5023970;28;20073;-66
2021/06/07 05:00:27;;;;;;;4.40;2.47;;;;;;;26.70;38.03;101191.56;5011813;28;20042;-65
2021/06/07 05:02:56;;;;;;;3.80;2.40;;;;;;;26.53;38.55;101189.56;5011835;28;20034;-66
2021/06/07 05:05:23;;;;;;;6.20;2.20;;;;;;;27.09;37.73;101205.16;5019314;28;20125;-67
2021/06/07 05:07:51;;;;;;;6.57;2.13;;;;;;;27.37;37.17;101197.53;5031475;28;20045;-66
2021/06/07 05:10:18;;;;;;;4.82;2.40;;;;;;;27.15;37.58;101207.59;5031426;28;20209;-66
2021/06/07 05:12:46;;;;;;;8.68;2.65;;;;;;;26.88;37.78;101197.03;5029373;28;20107;-66
2021/06/07 05:15:14;;;;;;;6.78;2.35;;;;;;;26.82;37.59;101202.72;5007399;28;20117;-66
2021/06/07 05:17:41;;;;;;;3.95;2.00;;;;;;;26.67;37.70;101199.81;5009498;28;20121;-66
2021/06/07 05:20:13;;;;;;;4.32;2.20;;;;;;;26.64;37.44;101197.25;5010902;28;20042;-66
2021/06/07 05:22:40;;;;;;;3.55;1.95;;;;;;;27.18;36.96;101202.91;5024702;28;20042;-66
2021/06/07 05:25:08;;;;;;;4.85;2.17;;;;;;;27.98;35.60;101195.44;5029329;28;20041;-66
2021/06/07 05:27:35;;;;;;;8.77;2.17;;;;;;;27.98;35.91;101200.88;5030793;28;20052;-66
2021/06/07 05:30:03;;;;;;;6.43;2.67;;;;;;;27.89;36.46;101195.94;5022382;28;20033;-66
2021/06/07 05:32:30;;;;;;;4.78;2.20;;;;;;;28.48;35.98;101209.25;5025654;28;20050;-66
2021/06/07 05:34:58;;;;;;;4.35;2.38;;;;;;;28.36;35.67;101204.41;5028900;28;20029;-66
2021/06/07 05:37:26;;;;;;;8.48;2.28;;;;;;;27.73;36.80;101206.66;5030900;28;20124;-66
2021/06/07 05:39:53;;;;;;;3.55;2.15;;;;;;;27.44;37.59;101209.81;5030972;28;20040;-66
2021/06/07 05:42:20;;;;;;;6.55;2.63;;;;;;;27.95;37.11;101220.06;5030281;28;20052;-66
2021/06/07 05:44:47;;;;;;;4.30;2.08;;;;;;;28.91;35.80;101228.75;5030545;28;20102;-66
2021/06/07 05:47:14;;;;;;;5.85;2.13;;;;;;;29.47;34.44;101227.56;5030414;28;20055;-66
2021/06/07 05:49:41;;;;;;;4.63;2.03;;;;;;;28.95;34.64;101224.91;5030119;28;20379;-67
2021/06/07 05:52:11;;;;;;;4.85;2.03;;;;;;;28.20;35.44;101230.59;5027997;28;20045;-67
2021/06/07 05:54:41;;;;;;;6.68;2.55;;;;;;;27.94;36.05;101236.41;5027778;28;20160;-67
2021/06/07 05:57:09;;;;;;;6.05;2.20;;;;;;;27.92;36.22;101241.91;5013104;28;20582;-66
2021/06/07 05:59:36;;;;;;;10.05;2.97;;;;;;;27.50;37.13;101236.69;5030223;28;20037;-66
2021/06/07 06:02:04;;;;;;;5.53;2.05;;;;;;;27.26;37.37;101237.81;5029834;28;20137;-67
2021/06/07 06:04:32;;;;;;;4.47;2.13;;;;;;;27.30;37.04;101251.19;5030354;28;20036;-66
2021/06/07 06:07:00;;;;;;;3.92;2.05;;;;;;;27.54;36.61;101243.75;5027069;28;20038;-66
2021/06/07 06:09:27;;;;;;;2.97;2.15;;;;;;;27.41;37.02;101252.50;5028466;28;20133;-66
2021/06/07 06:11:56;;;;;;;8.48;2.55;;;;;;;27.15;37.38;101249.16;5024169;28;20033;-67
2021/06/07 06:14:24;;;;;;;3.67;2.13;;;;;;;27.22;37.27;101256.06;5028064;28;20048;-66
2021/06/07 06:16:51;;;;;;;4.28;2.42;;;;;;;27.10;37.68;101253.03;5029445;28;20110;-66
2021/06/07 06:19:18;;;;;;;5.32;2.05;;;;;;;27.03;37.84;101263.25;5030314;28;20099;-67
2021/06/07 06:21:45;;;;;;;3.47;1.88;;;;;;;27.19;38.06;101256.19;5029684;28;20502;-65
2021/06/07 06:24:13;;;;;;;4.10;1.73;;;;;;;27.52;37.28;101253.78;5029298;28;20498;-66
2021/06/07 06:26:41;;;;;;;5.95;2.10;;;;;;;28.40;36.52;101248.63;5028249;28;20452;-66
2021/06/07 06:29:10;;;;;;;2.47;1.90;;;;;;;29.68;34.75;101256.28;5029546;28;20044;-66
2021/06/07 06:31:37;;;;;;;4.00;1.85;;;;;;;30.18;33.71;101253.44;5029541;28;20041;-66
2021/06/07 06:34:04;;;;;;;3.65;1.92;;;;;;;29.66;34.45;101250.94;5029033;28;20041;-66
2021/06/07 06:36:31;;;;;;;4.00;1.67;;;;;;;29.50;34.73;101243.72;5029259;28;20124;-66
2021/06/07 06:39:01;;;;;;;4.07;2.08;;;;;;;29.66;34.37;101239.19;5029144;28;20049;-66
2021/06/07 06:41:30;;;;;;;3.85;2.05;;;;;;;30.06;34.16;101241.41;5029624;28;20049;-66
2021/06/07 06:43:57;;;;;;;3.00;1.80;;;;;;;30.75;33.41;101243.69;5029389;28;20053;-67
2021/06/07 06:46:26;;;;;;;6.28;1.75;;;;;;;31.26;32.66;101238.72;5028579;28;20047;-66
2021/06/07 06:48:54;;;;;;;7.20;1.80;;;;;;;31.61;32.61;101231.94;5028525;28;20850;-66
2021/06/07 06:51:21;;;;;;;4.53;1.70;;;;;;;31.86;32.06;101233.94;5015906;28;20519;-66
2021/06/07 06:53:48;;;;;;;2.70;1.60;;;;;;;31.98;31.98;101240.44;5012677;28;20034;-67
2021/06/07 06:56:16;;;;;;;6.32;1.90;;;;;;;32.17;31.22;101238.28;5020383;28;20548;-67
2021/06/07 06:58:43;;;;;;;2.53;1.45;;;;;;;32.50;30.68;101239.69;5028942;28;20578;-67
2021/06/07 07:01:10;;;;;;;4.65;1.63;;;;;;;32.75;30.44;101242.56;5028884;28;20711;-66
2021/06/07 07:03:39;;;;;;;8.27;2.08;;;;;;;32.95;30.20;101236.53;5023545;28;20187;-66
2021/06/07 07:06:06;;;;;;;7.60;2.67;;;;;;;32.99;30.00;101234.47;5025287;28;20121;-66
2021/06/07 07:08:33;;;;;;;2.33;1.63;;;;;;;32.93;29.72;101241.28;5024840;28;20473;-66
2021/06/07 07:11:00;;;;;;;3.85;1.70;;;;;;;32.77;29.71;101241.44;5029242;28;20113;-67
2021/06/07 07:13:28;;;;;;;4.72;1.73;;;;;;;32.74;29.67;101238.94;5012109;28;20099;-66
2021/06/07 07:15:55;;;;;;;3.33;1.70;;;;;;;32.71;29.25;101238.25;5013245;28;20033;-67
2021/06/07 07:18:22;;;;;;;5.78;2.20;;;;;;;32.68;28.72;101238.50;5028726;28;20033;-67
2021/06/07 07:20:51;;;;;;;3.75;1.70;;;;;;;32.75;28.51;101235.22;5025551;28;20440;-67
2021/06/07 07:23:18;;;;;;;5.55;1.60;;;;;;;32.87;28.58;101232.63;5012265;28;20051;-67
2021/06/07 07:25:47;;;;;;;2.70;1.85;;;;;;;32.98;27.69;101228.13;5013088;28;20065;-67
2021/06/07 07:28:17;;;;;;;5.88;1.70;;;;;;;32.86;28.15;101237.22;5009745;28;20038;-67
2021/06/07 07:30:46;;;;;;;4.72;1.90;;;;;;;32.87;28.22;101233.50;5014337;28;20041;-67
2021/06/07 07:33:15;;;;;;;3.72;1.85;;;;;;;32.76;28.12;101239.69;4994697;28;20038;-66
2021/06/07 07:35:44;;;;;;;6.30;1.70;;;;;;;32.64;28.48;101240.50;5024057;28;20509;-67
2021/06/07 07:38:16;;;;;;;3.17;1.63;;;;;;;32.66;28.41;101243.16;5018468;28;20046;-67
2021/06/07 07:40:46;;;;;;;2.95;1.63;;;;;;;32.52;28.81;101241.38;4999563;28;20121;-67
2021/06/07 07:43:17;;;;;;;4.53;1.58;;;;;;;32.70;28.69;101247.44;5020309;28;20045;-67
2021/06/07 07:45:45;;;;;;;4.32;1.63;;;;;;;32.51;28.65;101244.19;5029140;28;20068;-67
2021/06/07 07:48:11;;;;;;;6.72;1.80;;;;;;;32.43;28.39;101242.84;5000323;28;20046;-66
2021/06/07 07:50:39;;;;;;;2.55;1.70;;;;;;;32.47;28.53;101229.88;5027776;28;20041;-67
2021/06/07 07:53:07;;;;;;;4.05;1.88;;;;;;;32.44;28.38;101238.25;5022527;28;20081;-68
2021/06/07 07:55:36;;;;;;;3.05;1.70;;;;;;;32.27;28.64;101231.22;5008301;28;20137;-67
2021/06/07 07:58:10;;;;;;;6.35;1.70;;;;;;;32.40;28.49;101234.00;5018905;28;20094;-66
2021/06/07 08:00:40;;;;;;;3.92;2.03;;;;;;;32.43;28.36;101234.66;5006757;28;20068;-68
2021/06/07 08:03:08;;;;;;;4.70;1.77;;;;;;;32.17;29.06;101237.38;5011718;28;20034;-68
2021/06/07 08:05:35;;;;;;;3.95;1.60;;;;;;;32.12;28.88;101234.94;4997310;28;20447;-67
2021/06/07 08:08:03;;;;;;;4.40;1.70;;;;;;;32.27;28.76;101233.97;5019968;28;20052;-67
2021/06/07 08:10:30;;;;;;;6.55;1.98;;;;;;;32.41;28.91;101249.44;5023914;28;20525;-67
2021/06/07 08:13:00;;;;;;;4.97;2.00;;;;;;;32.17;29.04;101248.31;5014317;28;20501;-68
2021/06/07 08:15:29;;;;;;;5.03;2.20;;;;;;;32.02;28.92;101242.91;5025799;28;20087;-67
2021/06/07 08:17:57;;;;;;;3.85;1.50;;;;;;;32.09;29.42;101243.38;5027912;28;20045;-67
2021/06/07 08:20:24;;;;;;;2.90;1.83;;;;;;;32.16;29.22;101250.22;5032532;28;20048;-66
2021/06/07 08:22:54;;;;;;;3.05;1.70;;;;;;;32.23;29.11;101235.13;5028703;28;20618;-67
2021/06/07 08:25:24;;;;;;;4.75;1.85;;;;;;;32.08;29.58;101240.72;5030259;28;20040;-66
2021/06/07 08:27:52;;;;;;;3.95;1.55;;;;;;;32.18;29.67;101242.75;5026071;28;20037;-66
2021/06/07 08:30:22;;;;;;;5.25;1.73;;;;;;;32.37;29.75;101243.28;5025386;28;20053;-67
2021/06/07 08:32:50;;;;;;;3.15;1.63;;;;;;;32.60;29.96;101249.03;5029244;28;20030;-66
2021/06/07 08:35:19;;;;;;;2.85;1.73;;;;;;;32.72;29.92;101246.38;5030286;28;20551;-67
2021/06/07 08:37:46;;;;;;;3.10;1.65;;;;;;;32.91;29.33;101254.16;5015569;28;20050;-67
2021/06/07 08:40:16;;;;;;;3.55;1.60;;;;;;;33.02;29.30;101247.94;5031935;28;20048;-66
2021/06/07 08:42:43;;;;;;;3.20;1.83;;;;;;;33.03;29.59;101249.69;5017832;28;20156;-67
2021/06/07 08:45:14;;;;;;;2.70;1.85;;;;;;;33.26;28.79;101256.31;5021008;28;20052;-67
2021/06/07 08:47:45;;;;;;;3.83;1.67;;;;;;;33.26;29.08;101245.38;5023299;28;20378;-67
2021/06/07 08:50:14;;;;;;;2.55;1.67;;;;;;;33.12;29.07;101243.59;5029218;28;20044;-68
2021/06/07 08:52:43;;;;;;;4.78;1.77;;;;;;;33.07;29.40;101245.78;5031530;28;20421;-67
2021/06/07 08:55:13;;;;;;;5.00;2.20;;;;;;;33.21;29.01;101249.28;5017341;28;20053;-66
2021/06/07 08:57:42;;;;;;;4.38;1.77;;;;;;;33.08;29.89;101251.13;5013732;28;20046;-66
2021/06/07 09:00:11;;;;;;;2.60;1.73;;;;;;;33.07;29.63;101256.72;5025414;28;20049;-67
2021/06/07 09:02:44;;;;;;;3.70;1.70;;;;;;;32.86;30.22;101258.22;5009781;28;20062;-66
2021/06/07 09:05:12;;;;;;;3.13;1.50;;;;;;;32.82;30.01;101252.09;5031918;28;20041;-67
2021/06/07 09:07:57;;;;;;;2.00;1.50;;;;;;;32.78;30.14;101253.28;5026620;28;20044;-67
2021/06/07 09:10:26;;;;;;;2.85;1.65;;;;;;;32.74;29.94;101254.47;5029680;28;20041;-67
2021/06/07 09:12:55;;;;;;;4.43;2.00;;;;;;;32.52;30.05;101260.50;5025896;28;20041;-66
2021/06/07 09:15:31;;;;;;;5.15;1.98;;;;;;;32.36;30.49;101257.91;5023862;28;20038;-66
2021/06/07 09:18:01;;;;;;;2.95;2.10;;;;;;;32.21;30.37;101266.28;5010285;28;20064;-67
2021/06/07 09:20:29;;;;;;;5.45;2.10;;;;;;;32.43;30.37;101263.84;5015795;28;20175;-66
2021/06/07 09:22:58;;;;;;;5.13;1.80;;;;;;;32.55;30.21;101270.38;5029326;28;20045;-67
2021/06/07 09:25:29;;;;;;;3.83;1.60;;;;;;;32.64;29.77;101261.50;5025646;28;20577;-66
2021/06/07 09:28:12;;;;;;;5.40;1.73;;;;;;;32.41;29.84;101258.50;5013289;28;20053;-67
2021/06/07 09:30:43;;;;;;;2.92;1.67;;;;;;;32.35;30.29;101267.13;5023425;28;20060;-67
2021/06/07 09:33:39;;;;;;;3.60;1.98;;;;;;;32.44;30.47;101269.22;5024202;28;20383;-67
2021/06/07 09:36:23;;;;;;;3.78;1.90;;;;;;;32.53;30.25;101275.94;5025750;28;20056;-67
2021/06/07 09:38:59;;;;;;;2.97;1.80;;;;;;;32.15;31.52;101275.78;5029687;28;20753;-67
2021/06/07 09:41:28;;;;;;;3.42;1.88;;;;;;;32.10;31.49;101279.75;5026694;28;20065;-66
2021/06/07 09:43:56;;;;;;;5.63;2.33;;;;;;;32.16;31.92;101273.94;5026338;28;20042;-66
2021/06/07 09:46:25;;;;;;;2.30;1.60;;;;;;;32.26;31.66;101278.66;5008595;28;20121;-66
2021/06/07 09:49:05;;;;;;;5.60;1.75;;;;;;;32.31;31.83;101279.22;5017752;28;20513;-66
2021/06/07 09:51:33;;;;;;;3.30;1.48;;;;;;;32.50;31.57;101277.97;5026148;28;20652;-66
2021/06/07 09:54:00;;;;;;;3.03;1.67;;;;;;;32.18;31.88;101277.41;5029762;28;20099;-66
2021/06/07 09:56:27;;;;;;;4.95;1.85;;;;;;;32.06;31.99;101279.97;5021584;28;20042;-66
2021/06/07 09:58:55;;;;;;;5.07;1.92;;;;;;;32.09;32.23;101272.53;5021329;28;20515;-66
2021/06/07 10:01:27;;;;;;;3.53;1.70;;;;;;;32.25;32.57;101267.81;5027932;28;20059;-66
2021/06/07 10:03:56;;;;;;;5.18;1.98;;;;;;;32.11;32.17;101265.97;5023141;28;20033;-66
2021/06/07 10:06:27;;;;;;;4.47;1.95;;;;;;;32.23;32.66;101275.28;5030515;28;20037;-66
2021/06/07 10:08:59;;;;;;;2.97;1.75;;;;;;;32.10;32.51;101274.31;5028484;28;20042;-66
2021/06/07 10:11:29;;;;;;;2.95;2.03;;;;;;;31.92;32.86;101263.59;5010810;28;20048;-66
2021/06/07 10:14:08;;;;;;;2.35;1.92;;;;;;;31.87;33.35;101262.13;5023198;28;20048;-66
2021/06/07 10:16:35;;;;;;;3.67;1.92;;;;;;;31.36;33.52;101261.75;5026776;28;20509;-66
2021/06/07 10:19:07;;;;;;;9.48;2.05;;;;;;;31.14;34.38;101262.22;5020310;28;20085;-66
2021/06/07 10:21:36;;;;;;;2.53;1.90;;;;;;;31.43;33.62;101256.78;5029324;28;20048;-66
2021/06/07 10:24:03;;;;;;;3.30;1.90;;;;;;;31.23;33.60;101255.31;5030141;28;20523;-66
2021/06/07 10:26:30;;;;;;;2.90;2.00;;;;;;;31.11;33.86;101256.06;5026812;28;20390;-66
2021/06/07 10:28:57;;;;;;;5.03;1.90;;;;;;;30.78;34.20;101243.50;5015923;28;20054;-66
2021/06/07 10:31:25;;;;;;;2.42;1.60;;;;;;;30.72;33.90;101249.31;5027625;28;20037;-67
2021/06/07 10:33:58;;;;;;;4.72;2.03;;;;;;;30.58;33.67;101243.84;5009659;28;20034;-66
2021/06/07 10:36:40;;;;;;;5.28;2.10;;;;;;;30.79;33.63;101250.69;5023558;28;20434;-66
2021/06/07 10:39:26;;;;;;;9.27;2.00;;;;;;;31.13;33.31;101248.66;5023035;28;20045;-66
2021/06/07 10:42:23;;;;;;;4.95;2.20;;;;;;;31.40;32.67;101252.38;5021084;28;20041;-65
2021/06/07 10:44:54;;;;;;;3.08;1.70;;;;;;;31.30;32.83;101253.94;5011544;28;20046;-65
2021/06/07 10:47:22;;;;;;;3.63;1.70;;;;;;;31.44;32.47;101251.19;5022190;28;20041;-66
2021/06/07 10:49:55;;;;;;;2.92;1.80;;;;;;;31.75;31.82;101252.00;5027125;28;20060;-66
2021/06/07 10:52:25;;;;;;;3.20;2.13;;;;;;;32.13;30.90;101249.50;5023204;28;20070;-66
2021/06/07 10:55:00;;;;;;;5.32;2.05;;;;;;;32.16;31.66;101252.06;5002942;28;20042;-67
2021/06/07 10:57:39;;;;;;;6.65;2.10;;;;;;;32.39;31.55;101248.66;5014334;28;20041;-67
2021/06/07 11:00:21;;;;;;;3.42;1.98;;;;;;;32.54;31.77;101252.19;5029234;28;20052;-66
2021/06/07 11:02:49;;;;;;;2.80;1.80;;;;;;;32.64;31.27;101253.31;5009286;28;20088;-67
2021/06/07 11:05:19;;;;;;;4.70;1.98;;;;;;;32.40;31.71;101250.41;5008234;28;20116;-67
2021/06/07 11:08:03;;;;;;;4.55;2.42;;;;;;;32.16;32.11;101252.06;5021502;28;20061;-68
2021/06/07 11:10:32;;;;;;;6.43;2.65;;;;;;;31.98;32.78;101245.91;5027798;28;20125;-67
2021/06/07 11:13:01;;;;;;;5.75;2.00;;;;;;;32.20;32.51;101243.53;5029264;28;20072;-67
2021/06/07 11:15:30;;;;;;;3.85;2.47;;;;;;;32.32;32.61;101244.56;5028708;28;20424;-66
2021/06/07 11:18:23;;;;;;;4.13;1.92;;;;;;;32.84;31.52;101244.63;5029075;28;20573;-67
2021/06/07 11:20:52;;;;;;;4.47;1.88;;;;;;;32.68;31.92;101246.69;5019829;28;20627;-66
2021/06/07 11:23:22;;;;;;;5.22;2.45;;;;;;;32.61;31.53;101243.47;5028237;28;20051;-67
2021/06/07 11:25:55;;;;;;;5.05;2.10;;;;;;;32.51;31.80;101246.94;5021744;28;20049;-66
2021/06/07 11:28:44;;;;;;;2.08;1.55;;;;;;;32.79;31.80;101252.28;5014674;28;20049;-66
2021/06/07 11:31:42;;;;;;;4.07;1.88;;;;;;;32.73;31.10;101256.34;5009413;28;20180;-67
2021/06/07 11:34:11;;;;;;;5.00;1.90;;;;;;;32.66;31.65;101254.97;4950899;28;20131;-67